Time;durP1;ratioP1;P1;durP2;ratioP2;P2;SDS_P1;SDS_P2;PMS_P1;PMS_P2;Temp;Humidity;BMP_temperature;BMP_pressure;BME280_temperature;BME280_humidity;BME280_pressure;Samples;Min_cycle;Max_cycle;Signal;HPM_P1;HPM_P2
2022/08/16 00:01:21;;;;;;;12.45;11.07;;;21.00;99.90;;;;;;4998661;28;20124;-70
2022/08/16 00:03:51;;;;;;;12.45;11.18;;;21.00;99.90;;;;;;5000380;28;20731;-73
2022/08/16 00:06:19;;;;;;;11.75;10.65;;;21.00;99.90;;;;;;4999689;28;20728;-69
2022/08/16 00:08:46;;;;;;;11.77;10.40;;;20.90;99.90;;;;;;4999875;28;20061;-70
2022/08/16 00:11:14;;;;;;;13.07;11.38;;;20.90;99.90;;;;;;4997245;28;20074;-70
2022/08/16 00:13:47;;;;;;;14.13;12.23;;;20.90;99.90;;;;;;4999413;28;20052;-69
2022/08/16 00:16:22;;;;;;;13.52;12.02;;;20.90;99.90;;;;;;4999377;28;20823;-72
2022/08/16 00:19:10;;;;;;;13.10;11.85;;;20.90;99.90;;;;;;4996642;28;20778;-67
2022/08/16 00:21:39;;;;;;;;;;;20.80;99.90;;;;;;5000174;28;20045;-74
2022/08/16 00:24:06;;;;;;;14.20;10.23;;;20.80;99.90;;;;;;4999755;28;19925;-69
2022/08/16 00:26:38;;;;;;;11.85;10.63;;;20.80;99.90;;;;;;4998812;28;20106;-70
2022/08/16 00:29:14;;;;;;;13.48;11.27;;;20.80;99.90;;;;;;4997042;28;20057;-68
2022/08/16 00:31:44;;;;;;;15.30;12.68;;;20.70;99.90;;;;;;4999548;28;20050;-69
2022/08/16 00:34:27;;;;;;;12.15;10.63;;;20.70;99.90;;;;;;4999831;28;20050;-69
2022/08/16 00:37:15;;;;;;;18.67;11.65;;;20.80;99.90;;;;;;4997111;28;20215;-69
2022/08/16 00:39:47;;;;;;;14.95;11.30;;;20.70;99.90;;;;;;4996756;28;20119;-73
2022/08/16 00:42:28;;;;;;;13.32;12.02;;;20.70;99.90;;;;;;4998025;28;20057;-68
2022/08/16 00:45:10;;;;;;;13.77;12.50;;;20.70;99.90;;;;;;4997093;28;20050;-69
2022/08/16 00:47:43;;;;;;;13.27;10.73;;;20.70;99.90;;;;;;4996947;28;20128;-70
2022/08/16 00:50:21;;;;;;;15.35;12.65;;;20.60;99.90;;;;;;4998532;28;20055;-69
2022/08/16 00:53:06;;;;;;;13.68;12.07;;;20.70;99.90;;;;;;4998945;28;20125;-70
2022/08/16 00:55:35;;;;;;;13.40;12.00;;;20.70;99.90;;;;;;4994299;28;20077;-69
2022/08/16 00:58:05;;;;;;;13.43;11.15;;;20.70;99.90;;;;;;4999288;28;20050;-69
2022/08/16 01:00:43;;;;;;;15.45;13.82;;;20.60;99.90;;;;;;4998087;28;20126;-70
2022/08/16 01:03:23;;;;;;;12.68;11.48;;;20.60;99.90;;;;;;4997229;28;20160;-68
2022/08/16 01:05:58;;;;;;;11.35;10.25;;;20.60;99.90;;;;;;4997469;28;20050;-68
2022/08/16 01:08:26;;;;;;;14.82;11.77;;;20.60;99.90;;;;;;4998876;28;20056;-69
2022/08/16 01:11:04;;;;;;;13.68;12.27;;;20.60;99.90;;;;;;4998483;28;20049;-69
2022/08/16 01:13:36;;;;;;;12.20;10.73;;;20.60;99.90;;;;;;4995506;28;20244;-69
2022/08/16 01:16:07;;;;;;;15.00;10.43;;;20.60;99.90;;;;;;4997935;28;20520;-69
2022/08/16 01:18:43;;;;;;;15.13;13.73;;;20.60;99.90;;;;;;4998334;28;20063;-70
2022/08/16 01:21:36;;;;;;;13.98;12.63;;;20.60;99.90;;;;;;4996948;28;20140;-71
2022/08/16 01:24:23;;;;;;;13.40;11.52;;;20.60;99.90;;;;;;4996245;28;20147;-70
2022/08/16 01:27:21;;;;;;;13.32;11.98;;;20.50;99.90;;;;;;4993940;28;20711;-68
2022/08/16 01:29:55;;;;;;;14.18;12.82;;;20.50;99.90;;;;;;4998191;28;20058;-71
2022/08/16 01:32:29;;;;;;;13.38;11.98;;;20.50;99.90;;;;;;4996789;28;20050;-68
2022/08/16 01:35:07;;;;;;;12.80;11.65;;;20.50;99.90;;;;;;4996302;28;20052;-68
2022/08/16 01:37:47;;;;;;;14.05;12.02;;;20.50;99.90;;;;;;4993892;28;20095;-69
2022/08/16 01:40:25;;;;;;;12.73;11.45;;;20.50;99.90;;;;;;4996571;28;20869;-72
2022/08/16 01:42:54;;;;;;;16.25;11.50;;;20.50;99.90;;;;;;4996738;28;20447;-68
2022/08/16 01:45:23;;;;;;;16.88;15.27;;;20.50;99.90;;;;;;4994510;28;20050;-68
2022/08/16 01:48:05;;;;;;;15.60;12.13;;;20.50;99.90;;;;;;4995775;28;20639;-69
2022/08/16 01:50:48;;;;;;;14.50;12.70;;;20.50;99.90;;;;;;4997446;28;20049;-68
2022/08/16 01:53:35;;;;;;;15.48;10.70;;;20.40;99.90;;;;;;4994941;28;20117;-71
2022/08/16 01:56:24;;;;;;;14.00;12.60;;;20.40;99.90;;;;;;4996467;28;20112;-70
2022/08/16 01:58:56;;;;;;;17.02;12.85;;;20.50;99.90;;;;;;4996670;28;20046;-71
2022/08/16 02:01:24;;;;;;;;;;;20.40;99.90;;;;;;4995274;28;20061;-71
2022/08/16 02:03:55;;;;;;;13.70;12.20;;;20.40;99.90;;;;;;4995826;28;20066;-70
2022/08/16 02:06:36;;;;;;;15.35;12.73;;;20.40;99.90;;;;;;4995345;28;20045;-72
2022/08/16 02:09:06;;;;;;;19.05;13.15;;;20.40;99.90;;;;;;4996068;28;20057;-68
2022/08/16 02:11:41;;;;;;;12.52;11.20;;;20.40;99.90;;;;;;4992546;28;20068;-70
2022/08/16 02:14:25;;;;;;;13.65;12.25;;;20.40;99.90;;;;;;4994723;28;20836;-71
2022/08/16 02:16:57;;;;;;;14.82;12.60;;;20.40;99.90;;;;;;4995909;28;20129;-70
2022/08/16 02:19:27;;;;;;;14.68;13.25;;;20.40;99.90;;;;;;4994012;28;20216;-72
2022/08/16 02:22:19;;;;;;;19.65;13.45;;;20.40;99.90;;;;;;4998378;28;20141;-69
2022/08/16 02:25:08;;;;;;;13.13;11.18;;;20.40;99.90;;;;;;4994835;28;20045;-69
2022/08/16 02:27:37;;;;;;;17.40;13.10;;;20.30;99.90;;;;;;4996579;28;20098;-72
2022/08/16 02:30:13;;;;;;;13.23;11.95;;;20.30;99.90;;;;;;4994984;28;20065;-68
2022/08/16 02:33:00;;;;;;;16.80;13.95;;;20.30;99.90;;;;;;4995968;28;20042;-70
2022/08/16 02:35:29;;;;;;;14.68;13.27;;;20.30;99.90;;;;;;4993793;28;20055;-69
2022/08/16 02:37:57;;;;;;;16.08;14.13;;;20.30;99.90;;;;;;4996565;28;20061;-72
2022/08/16 02:40:35;;;;;;;13.77;11.55;;;20.30;99.90;;;;;;4995369;28;20053;-69
2022/08/16 02:43:03;;;;;;;21.50;13.05;;;20.30;99.90;;;;;;4996238;28;20061;-70
2022/08/16 02:45:31;;;;;;;28.13;13.77;;;20.30;99.90;;;;;;4994100;28;20050;-70
2022/08/16 02:47:59;;;;;;;18.02;12.38;;;20.30;99.90;;;;;;4996471;28;20050;-68
2022/08/16 02:50:46;;;;;;;13.82;12.52;;;20.30;99.90;;;;;;4996780;28;20380;-69
2022/08/16 02:53:28;;;;;;;18.33;12.50;;;20.30;99.90;;;;;;4993362;28;20262;-72
2022/08/16 02:55:55;;;;;;;13.07;11.52;;;20.30;99.90;;;;;;4994914;28;20046;-70
2022/08/16 02:58:22;;;;;;;18.05;15.55;;;20.30;99.90;;;;;;4996693;28;20131;-72
2022/08/16 03:00:54;;;;;;;16.75;12.80;;;20.30;99.90;;;;;;5000441;28;21223;-69
2022/08/16 03:03:26;;;;;;;25.10;13.70;;;20.30;99.90;;;;;;4998551;28;20058;-71
2022/08/16 03:06:17;;;;;;;13.98;12.13;;;20.30;99.90;;;;;;4999360;28;20060;-69
2022/08/16 03:09:11;;;;;;;17.80;12.98;;;20.30;99.90;;;;;;4997862;28;20544;-70
2022/08/16 03:11:46;;;;;;;14.85;13.23;;;20.30;99.90;;;;;;4998665;28;20080;-70
2022/08/16 03:14:13;;;;;;;13.93;12.10;;;20.30;99.90;;;;;;5000119;28;20041;-72
2022/08/16 03:16:48;;;;;;;15.43;13.80;;;20.30;99.90;;;;;;4998726;28;20045;-69
2022/08/16 03:19:28;;;;;;;14.45;12.65;;;20.30;99.90;;;;;;4995991;28;20057;-71
2022/08/16 03:22:16;;;;;;;;;;;20.30;99.90;;;;;;4999608;28;20076;-69
2022/08/16 03:24:59;;;;;;;17.77;12.13;;;20.30;99.90;;;;;;4998532;28;20907;-69
2022/08/16 03:27:31;;;;;;;15.73;13.07;;;20.30;99.90;;;;;;4997901;28;20112;-68
2022/08/16 03:30:18;;;;;;;13.63;12.25;;;20.30;99.90;;;;;;4998680;28;20926;-69
2022/08/16 03:32:50;;;;;;;14.05;12.30;;;20.30;99.90;;;;;;4998897;28;21436;-71
2022/08/16 03:35:23;;;;;;;13.15;11.90;;;20.30;99.90;;;;;;4997053;28;20048;-69
2022/08/16 03:38:04;;;;;;;14.60;13.05;;;20.30;99.90;;;;;;4998773;28;20400;-67
2022/08/16 03:40:52;;;;;;;14.23;12.73;;;20.30;99.90;;;;;;4997067;28;20057;-70
2022/08/16 03:43:23;;;;;;;17.95;15.07;;;20.30;99.90;;;;;;4996362;28;20052;-72
2022/08/16 03:46:12;;;;;;;17.25;14.07;;;20.30;99.90;;;;;;4998188;28;20053;-69
2022/08/16 03:48:59;;;;;;;14.60;12.82;;;20.30;99.90;;;;;;5000281;28;20376;-68
2022/08/16 03:51:27;;;;;;;15.57;13.93;;;20.30;99.90;;;;;;4996751;28;20077;-71
2022/08/16 03:54:00;;;;;;;14.45;12.13;;;20.40;99.90;;;;;;4998357;28;20216;-69
2022/08/16 03:56:30;;;;;;;15.13;12.75;;;20.40;99.90;;;;;;4997826;28;20041;-69
2022/08/16 03:59:00;;;;;;;22.23;15.90;;;20.40;99.90;;;;;;4998109;28;20157;-72
2022/08/16 04:01:34;;;;;;;15.57;12.73;;;20.40;99.90;;;;;;4997225;28;20580;-71
2022/08/16 04:04:01;;;;;;;13.63;12.43;;;20.40;99.90;;;;;;4999484;28;20042;-70
2022/08/16 04:06:29;;;;;;;17.90;13.20;;;20.40;99.90;;;;;;4997924;28;20463;-69
2022/08/16 04:08:56;;;;;;;18.45;12.65;;;20.40;99.90;;;;;;4999782;28;20148;-69
2022/08/16 04:11:23;;;;;;;16.42;12.20;;;20.50;99.90;;;;;;4995522;28;20173;-70
2022/08/16 04:13:51;;;;;;;15.75;14.20;;;20.50;99.90;;;;;;4998798;28;20052;-70
2022/08/16 04:16:41;;;;;;;16.95;12.70;;;20.50;99.90;;;;;;4998749;28;20075;-72
2022/08/16 04:19:29;;;;;;;16.85;12.10;;;20.50;99.90;;;;;;4997809;28;20050;-72
2022/08/16 04:21:59;;;;;;;25.77;15.20;;;20.50;99.90;;;;;;4998719;28;20053;-68
2022/08/16 04:24:30;;;;;;;16.20;12.85;;;20.60;99.90;;;;;;4997797;28;20055;-69
2022/08/16 04:26:58;;;;;;;14.27;12.77;;;20.60;99.90;;;;;;4999293;28;20054;-68
2022/08/16 04:29:26;;;;;;;15.40;12.23;;;20.50;99.90;;;;;;4995916;28;20369;-70
2022/08/16 04:32:10;;;;;;;18.52;12.18;;;20.60;99.90;;;;;;4997724;28;20388;-69
2022/08/16 04:34:41;;;;;;;16.63;13.35;;;20.60;99.90;;;;;;4998244;28;20061;-70
2022/08/16 04:37:10;;;;;;;15.55;13.63;;;20.60;99.90;;;;;;4996243;28;20146;-69
2022/08/16 04:39:41;;;;;;;15.88;14.23;;;20.70;99.90;;;;;;4997317;28;20068;-72
2022/08/16 04:42:21;;;;;;;16.17;14.45;;;20.70;99.90;;;;;;4997607;28;20045;-69
2022/08/16 04:44:54;;;;;;;19.67;11.85;;;20.80;99.90;;;;;;4997298;28;20050;-68
2022/08/16 04:47:30;;;;;;;18.50;13.45;;;20.80;99.90;;;;;;4996126;28;20211;-70
2022/08/16 04:50:11;;;;;;;20.40;13.23;;;20.90;99.90;;;;;;4996702;28;20060;-69
2022/08/16 04:52:56;;;;;;;15.30;13.05;;;20.90;99.90;;;;;;4998266;28;20071;-69
2022/08/16 04:55:28;;;;;;;15.68;14.18;;;20.90;99.90;;;;;;4994797;28;20046;-68
2022/08/16 04:58:06;;;;;;;15.65;12.77;;;20.90;99.90;;;;;;4997363;28;20718;-71
2022/08/16 05:00:56;;;;;;;14.85;12.43;;;21.00;99.90;;;;;;4997686;28;20083;-68
2022/08/16 05:03:24;;;;;;;15.93;11.77;;;21.00;99.90;;;;;;4995598;28;20533;-72
2022/08/16 05:05:52;;;;;;;14.98;13.52;;;21.00;99.90;;;;;;4998300;28;20041;-68
2022/08/16 05:08:27;;;;;;;14.73;12.13;;;21.10;99.90;;;;;;4997235;28;20616;-71
2022/08/16 05:11:07;;;;;;;17.10;12.27;;;21.20;99.90;;;;;;4997437;28;20108;-69
2022/08/16 05:13:37;;;;;;;14.35;12.55;;;21.20;99.90;;;;;;4997513;28;20050;-69
2022/08/16 05:16:16;;;;;;;14.88;12.35;;;21.20;99.90;;;;;;4997140;28;20049;-73
2022/08/16 05:18:54;;;;;;;12.57;11.35;;;21.30;99.90;;;;;;5013980;28;20680;-70
2022/08/16 05:21:27;;;;;;;14.30;11.07;;;21.30;99.90;;;;;;4994414;28;20657;-70
2022/08/16 05:24:05;;;;;;;14.30;11.75;;;21.30;99.90;;;;;;4996122;28;20108;-70
2022/08/16 05:26:36;;;;;;;13.02;11.73;;;21.40;99.90;;;;;;4996642;28;20191;-71
2022/08/16 05:29:11;;;;;;;19.40;13.73;;;21.50;99.90;;;;;;4995247;28;20059;-69
2022/08/16 05:31:53;;;;;;;17.10;13.07;;;21.50;99.90;;;;;;4996519;28;20065;-68
2022/08/16 05:34:21;;;;;;;13.82;12.23;;;21.50;99.90;;;;;;4996809;28;20191;-72
2022/08/16 05:36:55;;;;;;;16.08;12.05;;;21.50;99.90;;;;;;4996814;28;20168;-67
2022/08/16 05:39:27;;;;;;;24.73;12.93;;;21.60;99.90;;;;;;4994970;28;21287;-68
2022/08/16 05:41:55;;;;;;;13.35;11.98;;;21.70;99.90;;;;;;4997964;28;20054;-69
2022/08/16 05:44:23;;;;;;;13.10;11.63;;;21.70;99.90;;;;;;4996574;28;20065;-69
2022/08/16 05:46:57;;;;;;;11.25;10.13;;;21.80;99.90;;;;;;4996677;28;20060;-69
2022/08/16 05:49:29;;;;;;;13.27;11.85;;;21.80;99.90;;;;;;4995351;28;20053;-70
2022/08/16 05:52:08;;;;;;;21.25;11.35;;;21.90;99.90;;;;;;4996080;28;20680;-68
2022/08/16 05:54:42;;;;;;;13.88;11.95;;;21.90;99.90;;;;;;4996879;28;20069;-69
2022/08/16 05:57:17;;;;;;;13.27;11.88;;;21.90;99.90;;;;;;4993581;28;20053;-71
2022/08/16 05:59:47;;;;;;;14.40;12.07;;;22.00;99.90;;;;;;4995673;28;20057;-70
2022/08/16 06:02:29;;;;;;;21.63;11.98;;;22.00;99.90;;;;;;4995627;28;20064;-69
2022/08/16 06:05:02;;;;;;;12.45;11.25;;;22.10;99.90;;;;;;4996188;28;20061;-71
2022/08/16 06:07:29;;;;;;;16.10;11.80;;;22.20;99.90;;;;;;4994040;28;20073;-70
2022/08/16 06:10:06;;;;;;;11.55;10.45;;;22.20;99.90;;;;;;4996161;28;20050;-69
2022/08/16 06:12:36;;;;;;;;;;;22.30;99.90;;;;;;4996336;28;20068;-70
2022/08/16 06:15:13;;;;;;;16.08;11.27;;;22.40;99.90;;;;;;4996554;28;19925;-70
2022/08/16 06:17:43;;;;;;;23.35;12.45;;;22.40;99.90;;;;;;4995662;28;20136;-69
2022/08/16 06:20:19;;;;;;;12.23;11.05;;;22.50;99.90;;;;;;4995303;28;20521;-67
2022/08/16 06:22:56;;;;;;;15.00;10.88;;;22.60;99.90;;;;;;4996866;28;20050;-69
2022/08/16 06:25:48;;;;;;;12.55;11.18;;;22.60;99.90;;;;;;4994373;28;20786;-68
2022/08/16 06:28:20;;;;;;;12.05;10.77;;;22.70;99.90;;;;;;4996487;28;20104;-69
2022/08/16 06:31:05;;;;;;;13.35;10.90;;;22.80;99.90;;;;;;4997346;28;20037;-68
2022/08/16 06:33:38;;;;;;;15.65;10.80;;;22.90;99.90;;;;;;4995495;28;20060;-70
2022/08/16 06:36:10;;;;;;;12.23;11.02;;;22.90;99.90;;;;;;4999829;28;20064;-68
2022/08/16 06:38:37;;;;;;;15.43;10.45;;;23.10;99.90;;;;;;4999681;28;20487;-69
2022/08/16 06:41:31;;;;;;;12.60;10.70;;;23.20;99.90;;;;;;4998132;28;20259;-72
2022/08/16 06:44:13;;;;;;;12.95;10.88;;;23.30;99.90;;;;;;4999648;28;20348;-72
2022/08/16 06:46:53;;;;;;;10.25;9.23;;;23.40;99.90;;;;;;4999733;28;20060;-70
2022/08/16 06:49:20;;;;;;;18.90;10.55;;;23.50;99.90;;;;;;4999668;28;20061;-69
2022/08/16 06:51:47;;;;;;;12.93;10.35;;;23.70;99.90;;;;;;4999415;28;20608;-68
2022/08/16 06:54:20;;;;;;;10.93;9.15;;;23.80;99.90;;;;;;4999572;28;20050;-70
2022/08/16 06:56:48;;;;;;;16.80;10.85;;;23.90;99.90;;;;;;4999570;28;20380;-71
2022/08/16 06:59:21;;;;;;;14.43;9.27;;;24.00;99.90;;;;;;4999607;28;20143;-68
2022/08/16 07:01:54;;;;;;;11.23;9.23;;;24.10;99.90;;;;;;5000082;28;20073;-70
2022/08/16 07:04:26;;;;;;;10.02;9.05;;;24.20;99.90;;;;;;4999205;28;20073;-68
2022/08/16 07:07:04;;;;;;;12.27;9.13;;;24.30;99.90;;;;;;4998994;28;20050;-68
2022/08/16 07:09:35;;;;;;;10.20;9.23;;;24.40;99.90;;;;;;4997533;28;20062;-69
2022/08/16 07:12:03;;;;;;;11.00;9.90;;;24.40;99.90;;;;;;5000674;28;20046;-70
2022/08/16 07:14:34;;;;;;;12.88;10.50;;;24.50;99.90;;;;;;5000158;28;20120;-69
2022/08/16 07:17:04;;;;;;;14.65;10.27;;;24.60;99.90;;;;;;4998649;28;20063;-68
2022/08/16 07:19:40;;;;;;;10.85;9.52;;;24.70;99.90;;;;;;4997957;28;20046;-70
2022/08/16 07:22:35;;;;;;;11.88;9.35;;;24.70;99.90;;;;;;4999761;28;20423;-71
2022/08/16 07:25:15;;;;;;;26.67;12.05;;;24.80;99.90;;;;;;4996404;28;20156;-71
2022/08/16 07:27:43;;;;;;;10.93;9.68;;;25.00;99.90;;;;;;4998975;28;20514;-70
2022/08/16 07:30:17;;;;;;;10.63;9.60;;;25.10;99.90;;;;;;4999130;28;20701;-71
2022/08/16 07:33:05;;;;;;;10.52;9.48;;;25.20;99.90;;;;;;4998988;28;20054;-67
2022/08/16 07:35:35;;;;;;;;;;;25.30;99.90;;;;;;4997772;28;20038;-70
2022/08/16 07:38:11;;;;;;;10.80;9.68;;;25.50;99.90;;;;;;4998532;28;19930;-69
2022/08/16 07:40:54;;;;;;;10.35;9.35;;;25.60;99.90;;;;;;4998240;28;20895;-69
2022/08/16 07:43:28;;;;;;;10.75;9.02;;;25.80;99.90;;;;;;4996922;28;20227;-69
2022/08/16 07:45:59;;;;;;;9.63;8.45;;;25.90;99.90;;;;;;4997455;28;20061;-68
2022/08/16 07:48:28;;;;;;;;;;;26.10;99.90;;;;;;4998433;28;20108;-71
2022/08/16 07:50:56;;;;;;;10.55;8.43;;;26.20;99.90;;;;;;4998428;28;19925;-73
2022/08/16 07:53:30;;;;;;;9.20;8.45;;;26.30;99.90;;;;;;4996989;28;20056;-72
2022/08/16 07:56:01;;;;;;;9.40;7.68;;;26.30;99.90;;;;;;4998481;28;20100;-70
2022/08/16 07:58:37;;;;;;;9.23;8.43;;;26.30;99.90;;;;;;4998753;28;20053;-70
2022/08/16 08:01:10;;;;;;;9.93;8.55;;;26.30;99.90;;;;;;5012344;28;20291;-67
2022/08/16 08:03:46;;;;;;;12.60;9.20;;;26.30;99.90;;;;;;4998851;28;20061;-70
2022/08/16 08:06:22;;;;;;;10.35;8.13;;;26.40;99.90;;;;;;4997785;28;20760;-71
2022/08/16 08:08:53;;;;;;;8.45;7.60;;;26.50;99.90;;;;;;4997766;28;21067;-71
2022/08/16 08:11:27;;;;;;;8.80;8.07;;;26.60;99.90;;;;;;4996003;28;20049;-71
2022/08/16 08:14:01;;;;;;;10.55;9.13;;;26.80;99.90;;;;;;4998259;28;20057;-70
2022/08/16 08:16:37;;;;;;;14.40;8.85;;;26.90;99.90;;;;;;4998008;28;20041;-70
2022/08/16 08:19:16;;;;;;;8.85;8.02;;;26.90;99.90;;;;;;4996717;28;20046;-71
2022/08/16 08:21:44;;;;;;;13.07;8.65;;;26.90;99.90;;;;;;5014218;28;20169;-71
2022/08/16 08:24:37;;;;;;;10.73;9.30;;;26.90;99.90;;;;;;4997192;28;20439;-70
2022/08/16 08:27:10;;;;;;;9.30;8.40;;;26.80;99.90;;;;;;4995892;28;20053;-71
2022/08/16 08:29:37;;;;;;;8.82;7.95;;;26.90;99.90;;;;;;4997820;28;20212;-69
2022/08/16 08:32:09;;;;;;;10.88;8.45;;;27.00;99.90;;;;;;4998037;28;20069;-68
2022/08/16 08:35:01;;;;;;;13.15;9.73;;;27.00;99.90;;;;;;4997005;28;20045;-71
2022/08/16 08:37:34;;;;;;;8.50;7.70;;;27.10;99.90;;;;;;4996748;28;20140;-68
2022/08/16 08:40:24;;;;;;;11.07;8.88;;;27.20;99.90;;;;;;4996916;28;20559;-71
2022/08/16 08:42:55;;;;;;;9.88;8.88;;;27.20;99.90;;;;;;4997490;28;20127;-69
2022/08/16 08:45:29;;;;;;;10.60;7.93;;;27.20;99.90;;;;;;4996232;28;20057;-70
2022/08/16 08:48:17;;;;;;;10.15;8.18;;;27.20;99.90;;;;;;4997895;28;20129;-69
2022/08/16 08:51:02;;;;;;;9.15;7.20;;;27.10;99.90;;;;;;4997191;28;20139;-69
2022/08/16 08:53:29;;;;;;;8.35;7.55;;;27.10;99.90;;;;;;4995947;28;20721;-70
2022/08/16 08:55:57;;;;;;;8.00;7.38;;;27.10;99.90;;;;;;4996498;28;20532;-71
2022/08/16 08:58:26;;;;;;;9.50;8.48;;;27.10;99.90;;;;;;4999108;28;20112;-70
2022/08/16 09:01:30;;;;;;;7.85;7.18;;;27.00;99.90;;;;;;4986411;28;20142;-69
2022/08/16 09:04:05;;;;;;;8.57;7.78;;;26.90;99.90;;;;;;4997087;28;20049;-72
2022/08/16 09:06:34;;;;;;;9.48;7.93;;;26.80;99.90;;;;;;4998550;28;20053;-70
2022/08/16 09:09:11;;;;;;;8.57;7.75;;;26.70;99.90;;;;;;4995567;28;20046;-71
2022/08/16 09:11:46;;;;;;;8.98;8.10;;;26.60;99.90;;;;;;4996168;28;20220;-71
2022/08/16 09:14:31;;;;;;;12.20;8.88;;;26.60;99.90;;;;;;4996906;28;20049;-70
2022/08/16 09:16:59;;;;;;;9.15;8.15;;;26.30;99.90;;;;;;4996901;28;20456;-69
2022/08/16 09:19:35;;;;;;;9.32;8.20;;;26.20;99.90;;;;;;4995551;28;20059;-68
2022/08/16 09:22:06;;;;;;;9.63;8.48;;;26.10;99.90;;;;;;4980888;28;20368;-69
2022/08/16 09:24:48;;;;;;;9.63;8.30;;;26.10;99.90;;;;;;4995554;28;20132;-73
2022/08/16 09:27:21;;;;;;;10.20;9.18;;;25.90;99.90;;;;;;4994872;28;20172;-68
2022/08/16 09:29:52;;;;;;;9.85;8.27;;;25.80;99.90;;;;;;4997263;28;20042;-68
2022/08/16 09:32:27;;;;;;;10.48;9.48;;;25.80;99.90;;;;;;4998927;28;20060;-70
2022/08/16 09:34:58;;;;;;;18.45;9.95;;;25.70;99.90;;;;;;4997984;28;20049;-67
2022/08/16 09:37:29;;;;;;;12.20;10.18;;;25.60;99.90;;;;;;4996721;28;20054;-67
2022/08/16 09:40:05;;;;;;;14.20;9.43;;;25.60;99.90;;;;;;4996275;28;20053;-70
2022/08/16 09:42:54;;;;;;;;;;;25.60;99.90;;;;;;4999215;28;20053;-69
2022/08/16 09:45:37;;;;;;;11.18;9.30;;;25.50;99.90;;;;;;4996774;28;19929;-71
2022/08/16 09:48:09;;;;;;;11.43;10.02;;;25.50;99.90;;;;;;4998351;28;20042;-70
2022/08/16 09:50:57;;;;;;;15.00;10.48;;;25.30;99.90;;;;;;4997397;28;20042;-70
2022/08/16 09:53:25;;;;;;;10.13;8.88;;;25.10;99.90;;;;;;4991966;28;20533;-71
2022/08/16 09:55:55;;;;;;;14.20;10.33;;;25.00;99.90;;;;;;4996281;28;20180;-68
2022/08/16 09:58:26;;;;;;;11.98;9.95;;;24.80;99.90;;;;;;4998046;28;20056;-69
2022/08/16 10:01:12;;;;;;;12.07;10.68;;;24.80;99.90;;;;;;4995536;28;20053;-71
2022/08/16 10:03:39;;;;;;;12.63;11.35;;;24.60;99.90;;;;;;4998193;28;20054;-70
2022/08/16 10:06:27;;;;;;;10.23;9.30;;;24.60;99.90;;;;;;4996379;28;20066;-72
2022/08/16 10:09:02;;;;;;;10.70;9.63;;;24.50;99.90;;;;;;4998026;28;20379;-70
2022/08/16 10:14:19;;;;;;;12.27;10.15;;;24.40;99.90;;;;;;5000816;28;20143;-71
2022/08/16 10:16:50;;;;;;;10.88;9.75;;;24.30;99.90;;;;;;4999383;28;20209;-67
2022/08/16 10:19:28;;;;;;;11.52;10.18;;;24.20;99.90;;;;;;4999786;28;22563;-71
2022/08/16 10:21:58;;;;;;;11.35;10.32;;;24.10;99.90;;;;;;5001606;28;20054;-71
2022/08/16 10:24:32;;;;;;;11.07;9.98;;;24.20;99.90;;;;;;5000058;28;20058;-68
2022/08/16 10:26:59;;;;;;;12.45;11.15;;;24.30;99.90;;;;;;5001717;28;20140;-70
2022/08/16 10:29:46;;;;;;;11.27;10.18;;;24.40;99.90;;;;;;5000557;28;20668;-69
2022/08/16 10:32:29;;;;;;;11.80;10.60;;;24.80;99.90;;;;;;5001239;28;20046;-71
2022/08/16 10:34:58;;;;;;;11.43;10.00;;;25.00;99.90;;;;;;5001286;28;20076;-71
2022/08/16 10:37:28;;;;;;;12.75;11.45;;;25.30;99.90;;;;;;5000050;28;20054;-70
2022/08/16 10:40:08;;;;;;;9.57;8.68;;;25.50;99.90;;;;;;5001972;28;20046;-69
2022/08/16 10:42:58;;;;;;;11.23;9.35;;;25.70;99.90;;;;;;4999682;28;20150;-70
2022/08/16 10:45:32;;;;;;;10.02;8.57;;;25.90;99.90;;;;;;4997507;28;20049;-68
2022/08/16 10:48:05;;;;;;;16.08;8.50;;;25.90;99.90;;;;;;4998549;28;20116;-69
2022/08/16 10:50:56;;;;;;;12.52;9.57;;;26.20;99.90;;;;;;4998975;28;20045;-68
2022/08/16 10:53:26;;;;;;;9.45;8.65;;;26.40;99.90;;;;;;5004836;28;20050;-69
2022/08/16 10:56:03;;;;;;;14.00;9.02;;;26.60;99.90;;;;;;5017833;28;20084;-69
2022/08/16 10:58:51;;;;;;;10.32;9.35;;;26.60;99.90;;;;;;4994162;28;20141;-69
2022/08/16 11:01:18;;;;;;;13.32;9.70;;;26.60;99.90;;;;;;4991204;28;20049;-69
2022/08/16 11:04:06;;;;;;;10.27;9.35;;;26.50;99.90;;;;;;5003381;28;20050;-71
2022/08/16 11:06:53;;;;;;;13.18;9.32;;;26.60;99.90;;;;;;4995692;28;20124;-67
2022/08/16 11:09:40;;;;;;;11.15;10.00;;;26.70;99.90;;;;;;4996827;28;20049;-69
2022/08/16 11:12:25;;;;;;;10.20;9.13;;;26.60;99.90;;;;;;5001220;28;20034;-70
2022/08/16 11:14:54;;;;;;;10.27;9.18;;;26.70;99.90;;;;;;4996923;28;20045;-70
2022/08/16 11:17:40;;;;;;;10.93;9.93;;;26.80;99.90;;;;;;4992666;28;20185;-68
2022/08/16 11:20:27;;;;;;;10.23;9.25;;;26.80;99.90;;;;;;4994987;28;20034;-68
2022/08/16 11:23:14;;;;;;;11.40;10.30;;;26.80;99.90;;;;;;4999760;28;20042;-69
2022/08/16 11:25:42;;;;;;;11.05;9.90;;;26.80;99.90;;;;;;4993058;28;20065;-67
2022/08/16 11:28:30;;;;;;;10.25;8.50;;;26.60;99.90;;;;;;5000250;28;20042;-69
2022/08/16 11:31:17;;;;;;;10.57;8.82;;;26.40;99.90;;;;;;5000242;28;20050;-69
2022/08/16 11:33:44;;;;;;;9.15;8.35;;;26.70;99.90;;;;;;4993609;28;20141;-69
2022/08/16 11:36:19;;;;;;;10.32;9.43;;;27.00;99.90;;;;;;4996424;28;20066;-69
2022/08/16 11:38:54;;;;;;;9.75;8.80;;;27.10;99.90;;;;;;5003663;28;20144;-69
2022/08/16 11:41:27;;;;;;;12.73;11.35;;;27.10;99.90;;;;;;4996962;28;20087;-68
2022/08/16 11:43:58;;;;;;;11.23;10.10;;;27.10;99.90;;;;;;5005281;28;20149;-71
2022/08/16 11:46:26;;;;;;;11.02;10.13;;;27.20;99.90;;;;;;4999455;28;20074;-69
2022/08/16 11:49:13;;;;;;;14.25;12.73;;;27.30;99.90;;;;;;5002102;28;20065;-68
2022/08/16 11:51:44;;;;;;;10.55;9.48;;;27.30;99.90;;;;;;4997153;28;20847;-68
2022/08/16 11:54:12;;;;;;;10.32;9.35;;;27.10;99.90;;;;;;4998864;28;20165;-68
2022/08/16 11:56:48;;;;;;;11.05;9.82;;;26.90;99.90;;;;;;4996234;28;20412;-68
2022/08/16 11:59:22;;;;;;;11.30;10.10;;;26.70;99.90;;;;;;4997430;28;20368;-67
2022/08/16 12:01:57;;;;;;;10.48;9.57;;;26.80;99.90;;;;;;4995573;28;20572;-68
2022/08/16 12:04:44;;;;;;;11.63;10.48;;;27.00;99.90;;;;;;4997343;28;20491;-72
2022/08/16 12:07:17;;;;;;;11.98;10.82;;;27.10;99.90;;;;;;4996609;28;20482;-68
2022/08/16 12:09:45;;;;;;;11.75;10.55;;;27.10;99.90;;;;;;4995211;28;20612;-71
2022/08/16 12:12:14;;;;;;;14.32;9.38;;;27.00;99.90;;;;;;4997329;28;20067;-70
2022/08/16 12:14:44;;;;;;;;;;;27.00;99.90;;;;;;5004942;28;20136;-69
2022/08/16 12:17:13;;;;;;;10.63;9.68;;;27.10;99.90;;;;;;5011883;28;20343;-67
2022/08/16 12:19:40;;;;;;;12.05;9.45;;;27.40;99.90;;;;;;5004273;28;20045;-71
2022/08/16 12:22:07;;;;;;;14.20;10.75;;;27.60;99.90;;;;;;4994626;28;20152;-67
2022/08/16 12:24:47;;;;;;;10.88;9.85;;;27.70;99.90;;;;;;4998409;28;20054;-72
2022/08/16 12:27:22;;;;;;;10.40;9.25;;;27.70;99.90;;;;;;4988946;28;20145;-69
2022/08/16 12:29:53;;;;;;;14.25;9.52;;;27.80;99.90;;;;;;4996309;28;20072;-67
2022/08/16 12:32:24;;;;;;;10.60;9.50;;;28.00;99.90;;;;;;4994831;28;20050;-68
2022/08/16 12:35:14;;;;;;;11.38;10.15;;;28.10;99.90;;;;;;4997128;28;20042;-67
2022/08/16 12:37:43;;;;;;;9.25;8.35;;;28.10;99.90;;;;;;5002697;28;20110;-68
2022/08/16 12:40:21;;;;;;;13.73;8.93;;;28.00;99.90;;;;;;5004021;28;20070;-70
2022/08/16 12:42:54;;;;;;;12.30;10.35;;;27.90;99.90;;;;;;5004608;28;20058;-67
2022/08/16 12:45:27;;;;;;;11.10;9.60;;;27.80;99.90;;;;;;4999612;28;20034;-70
2022/08/16 12:51:00;;;;;;;14.23;9.15;;;28.00;99.90;;;;;;5002968;28;20503;-69
2022/08/16 12:53:27;;;;;;;8.77;8.02;;;28.20;99.90;;;;;;5002885;28;20125;-73
2022/08/16 12:55:59;;;;;;;10.80;8.88;;;28.30;99.90;;;;;;4994445;28;20077;-67
2022/08/16 12:58:27;;;;;;;10.77;8.77;;;28.30;99.90;;;;;;5005279;28;20077;-68
2022/08/16 13:01:15;;;;;;;12.80;10.90;;;28.50;99.90;;;;;;4993725;28;20058;-70
2022/08/16 13:03:43;;;;;;;10.18;9.32;;;28.60;99.90;;;;;;4999737;28;20145;-70
2022/08/16 13:06:11;;;;;;;9.80;8.80;;;28.60;99.90;;;;;;4999797;28;20476;-67
2022/08/16 13:08:39;;;;;;;10.85;9.80;;;28.70;99.90;;;;;;4997327;28;20041;-71
2022/08/16 13:11:06;;;;;;;10.32;9.43;;;28.70;99.90;;;;;;4999956;28;20159;-69
2022/08/16 13:13:34;;;;;;;11.07;9.05;;;28.60;99.90;;;;;;4998234;28;20046;-69
2022/08/16 13:16:04;;;;;;;10.52;9.52;;;28.40;99.90;;;;;;5002480;28;20054;-69
2022/08/16 13:18:47;;;;;;;9.95;8.98;;;28.40;99.90;;;;;;5003335;28;20046;-68
2022/08/16 13:21:20;;;;;;;9.57;8.65;;;28.50;99.90;;;;;;4999843;28;20128;-70